Time;durP1;ratioP1;P1;durP2;ratioP2;P2;SDS_P1;SDS_P2;PMS_P1;PMS_P2;Temp;Humidity;BMP_temperature;BMP_pressure;BME280_temperature;BME280_humidity;BME280_pressure;Samples;Min_cycle;Max_cycle;Signal;HPM_P1;HPM_P2
2022/01/20 00:00:40;;;;;;;26.20;4.07;;;4.50;99.90;;;;;;5095755;28;20029;-73
2022/01/20 00:03:13;;;;;;;35.58;4.97;;;4.50;99.90;;;;;;5098082;28;19916;-74
2022/01/20 00:27:20;;;;;;;8.68;1.88;;;4.70;99.90;;;;;;5074170;28;20385;-74
2022/01/20 00:30:30;;;;;;;18.67;2.60;;;4.80;99.90;;;;;;5074060;28;20082;-74
2022/01/20 00:32:37;;;;;;;15.38;2.55;;;4.70;99.90;;;;;;5073280;28;20071;-74
2022/01/20 00:35:12;;;;;;;22.45;4.13;;;4.60;99.90;;;;;;5073943;28;20020;-74
2022/01/20 00:37:38;;;;;;;10.50;2.28;;;4.60;99.90;;;;;;5074175;28;20127;-74
2022/01/20 00:40:04;;;;;;;15.77;2.00;;;4.40;99.90;;;;;;5074005;28;20476;-74
2022/01/20 00:42:30;;;;;;;14.43;2.72;;;4.30;99.90;;;;;;5076055;28;20038;-74
2022/01/20 00:44:55;;;;;;;9.52;2.72;;;4.20;99.90;;;;;;5077225;28;20107;-74
2022/01/20 00:47:21;;;;;;;14.35;3.35;;;4.20;99.90;;;;;;5081868;28;20043;-74
2022/01/20 00:49:47;;;;;;;14.13;2.90;;;4.10;99.90;;;;;;5057995;28;20389;-75
2022/01/20 00:52:13;;;;;;;19.08;2.58;;;4.00;99.90;;;;;;5073414;28;20029;-74
2022/01/20 00:54:39;;;;;;;16.02;2.40;;;4.00;99.90;;;;;;5074094;28;20111;-74
2022/01/20 00:57:05;;;;;;;12.82;2.97;;;3.90;99.90;;;;;;5073275;28;20469;-74
2022/01/20 00:59:32;;;;;;;17.92;1.90;;;3.90;99.90;;;;;;5074089;28;20077;-74
2022/01/20 01:01:59;;;;;;;16.45;2.30;;;3.80;99.90;;;;;;5073434;28;20027;-74
2022/01/20 01:04:27;;;;;;;14.60;2.67;;;3.80;99.90;;;;;;5073217;28;20060;-74
2022/01/20 01:09:39;;;;;;;21.63;2.90;;;3.80;99.90;;;;;;5073569;28;20459;-74
2022/01/20 01:12:09;;;;;;;27.38;3.38;;;3.90;99.90;;;;;;5073211;28;20028;-74
2022/01/20 01:14:35;;;;;;;28.35;3.45;;;3.80;99.90;;;;;;5072867;28;20032;-74
2022/01/20 01:22:21;;;;;;;22.95;3.42;;;3.90;99.90;;;;;;5073459;28;20242;-74
2022/01/20 01:24:51;;;;;;;20.60;3.92;;;3.90;99.90;;;;;;5073201;28;20123;-74
2022/01/20 01:27:17;;;;;;;19.90;3.97;;;3.90;99.90;;;;;;5073246;28;20028;-74
2022/01/20 01:30:03;;;;;;;21.95;3.40;;;3.90;99.90;;;;;;5078157;28;20032;-74
2022/01/20 01:33:10;;;;;;;17.40;2.78;;;4.00;99.90;;;;;;5077057;28;20094;-74
2022/01/20 01:35:21;;;;;;;23.35;3.35;;;3.90;99.90;;;;;;5062186;28;20063;-74
2022/01/20 01:40:25;;;;;;;23.38;2.65;;;3.90;99.90;;;;;;5073054;28;20021;-74
2022/01/20 01:42:52;;;;;;;25.30;3.63;;;4.00;99.90;;;;;;5073109;28;20036;-73
2022/01/20 01:45:24;;;;;;;37.38;6.05;;;4.00;99.90;;;;;;5073150;28;20461;-74
2022/01/20 01:47:50;;;;;;;28.90;3.80;;;4.00;99.90;;;;;;5072924;28;20085;-74
2022/01/20 01:50:16;;;;;;;25.55;3.35;;;4.10;99.90;;;;;;5054659;28;20088;-74
2022/01/20 01:52:42;;;;;;;26.27;3.65;;;4.10;99.90;;;;;;5072687;28;20390;-74
2022/01/20 01:55:09;;;;;;;28.77;3.00;;;4.10;99.90;;;;;;5072593;28;20063;-74
2022/01/20 01:57:34;;;;;;;24.95;3.40;;;4.10;99.90;;;;;;5072729;28;20028;-74
2022/01/20 02:00:00;;;;;;;28.27;4.20;;;4.00;99.90;;;;;;5054833;28;20021;-74
2022/01/20 02:02:27;;;;;;;32.05;3.88;;;4.00;99.90;;;;;;5072973;28;20112;-74
2022/01/20 02:04:52;;;;;;;26.33;3.70;;;4.00;99.90;;;;;;5072654;28;20024;-75
2022/01/20 02:20:52;;;;;;;25.60;4.28;;;3.60;99.90;;;;;;5086321;28;20017;-73
2022/01/20 02:23:19;;;;;;;22.17;3.80;;;3.60;99.90;;;;;;5075515;28;20139;-73
2022/01/20 02:25:45;;;;;;;28.63;3.58;;;3.60;99.90;;;;;;5095087;28;20039;-74
2022/01/20 02:28:12;;;;;;;12.43;2.25;;;3.60;99.90;;;;;;5091468;28;20111;-74
2022/01/20 02:30:40;;;;;;;16.90;2.95;;;3.60;99.90;;;;;;5075091;28;20071;-74
2022/01/20 02:33:08;;;;;;;15.00;2.42;;;3.60;99.90;;;;;;5056573;28;20101;-74
2022/01/20 02:35:38;;;;;;;20.67;2.55;;;3.60;99.90;;;;;;5076344;28;20024;-74
2022/01/20 02:38:10;;;;;;;16.15;2.03;;;3.60;99.90;;;;;;5076315;28;20025;-74
2022/01/20 02:45:56;;;;;;;13.32;2.47;;;3.70;99.90;;;;;;5076583;28;20531;-74
2022/01/20 02:48:22;;;;;;;13.77;1.95;;;3.70;99.90;;;;;;5075789;28;20103;-74
2022/01/20 02:50:48;;;;;;;20.60;3.20;;;3.70;99.90;;;;;;5075803;28;20545;-74
2022/01/20 02:53:13;;;;;;;17.95;3.40;;;3.70;99.90;;;;;;5077855;28;20052;-73
2022/01/20 02:55:39;;;;;;;12.20;3.35;;;3.70;99.90;;;;;;5075291;28;20020;-74
2022/01/20 02:58:06;;;;;;;10.20;3.15;;;3.80;99.90;;;;;;5081658;28;20021;-74
2022/01/20 03:00:34;;;;;;;16.10;4.50;;;3.70;99.90;;;;;;5085610;28;20082;-73
2022/01/20 03:03:00;;;;;;;13.82;3.00;;;3.80;99.90;;;;;;5059652;28;20017;-74
2022/01/20 03:05:26;;;;;;;11.23;3.60;;;3.80;99.90;;;;;;5075477;28;20169;-73
2022/01/20 03:07:52;;;;;;;9.23;1.80;;;3.80;99.90;;;;;;5075510;28;20016;-74
2022/01/20 03:10:18;;;;;;;13.82;2.40;;;3.80;99.90;;;;;;5075269;28;20024;-74
2022/01/20 03:12:43;;;;;;;9.30;2.20;;;3.80;99.90;;;;;;5075142;28;20021;-74
2022/01/20 03:15:09;;;;;;;11.23;2.38;;;3.80;99.90;;;;;;5075033;28;20459;-74
2022/01/20 03:17:35;;;;;;;8.05;2.28;;;3.80;99.90;;;;;;5075387;28;20033;-74
2022/01/20 03:20:01;;;;;;;8.20;1.90;;;3.80;99.90;;;;;;5075320;28;20025;-74
2022/01/20 03:22:26;;;;;;;17.33;2.90;;;3.80;99.90;;;;;;5075960;28;20047;-74
2022/01/20 03:24:53;;;;;;;14.18;3.40;;;3.80;99.90;;;;;;5076591;28;20037;-74
2022/01/20 03:27:19;;;;;;;15.07;3.28;;;3.70;99.90;;;;;;5058188;28;20481;-74
2022/01/20 03:29:44;;;;;;;12.85;2.90;;;3.70;99.90;;;;;;5077832;28;20135;-74
2022/01/20 03:32:10;;;;;;;17.05;3.00;;;3.60;99.90;;;;;;5059755;28;20032;-74
2022/01/20 03:34:35;;;;;;;18.73;3.15;;;3.60;99.90;;;;;;5075105;28;20031;-74
2022/01/20 03:37:03;;;;;;;13.50;2.60;;;3.50;99.90;;;;;;5074908;28;20082;-74
2022/01/20 03:39:30;;;;;;;17.00;3.50;;;3.40;99.90;;;;;;5074877;28;20162;-74
2022/01/20 03:41:56;;;;;;;19.25;3.83;;;3.40;99.90;;;;;;5074726;28;20112;-74
2022/01/20 03:44:21;;;;;;;23.30;3.40;;;3.40;99.90;;;;;;5079467;28;20451;-74
2022/01/20 03:46:47;;;;;;;19.30;4.22;;;3.40;99.90;;;;;;5085579;28;20025;-73
2022/01/20 03:49:26;;;;;;;18.42;2.70;;;3.30;99.90;;;;;;5077000;28;20378;-74
2022/01/20 03:51:53;;;;;;;19.35;5.03;;;3.30;99.90;;;;;;5074926;28;20447;-74
2022/01/20 03:54:18;;;;;;;20.25;3.42;;;3.40;99.90;;;;;;5074441;28;20473;-73
2022/01/20 03:56:44;;;;;;;21.83;3.67;;;3.40;99.90;;;;;;5074483;28;20127;-74
2022/01/20 03:59:09;;;;;;;30.50;4.40;;;3.40;99.90;;;;;;5075019;28;20090;-74
2022/01/20 04:01:35;;;;;;;32.05;4.25;;;3.40;99.90;;;;;;5074810;28;20021;-74
2022/01/20 04:04:01;;;;;;;39.90;5.65;;;3.40;99.90;;;;;;5074968;28;20051;-74
2022/01/20 04:06:28;;;;;;;27.73;4.95;;;3.40;99.90;;;;;;5074441;28;20370;-74
2022/01/20 04:08:54;;;;;;;36.33;4.22;;;3.40;99.90;;;;;;5074197;28;20363;-74
2022/01/20 04:11:25;;;;;;;25.65;3.83;;;3.40;99.90;;;;;;5074387;28;20111;-74
2022/01/20 04:13:51;;;;;;;28.92;4.38;;;3.40;99.90;;;;;;5074295;28;20029;-73
2022/01/20 04:16:24;;;;;;;33.22;4.78;;;3.40;99.90;;;;;;5074002;28;20393;-73
2022/01/20 04:18:56;;;;;;;30.13;4.53;;;3.40;99.90;;;;;;5073926;28;20016;-74
2022/01/20 04:21:27;;;;;;;31.45;5.30;;;3.40;99.90;;;;;;5074468;28;20017;-74
2022/01/20 04:23:54;;;;;;;33.65;4.75;;;3.40;99.90;;;;;;5073766;28;20062;-73
2022/01/20 04:26:21;;;;;;;25.05;3.70;;;3.40;99.90;;;;;;5074052;28;20029;-74
2022/01/20 04:28:48;;;;;;;23.23;3.70;;;3.40;99.90;;;;;;5074049;28;20478;-74
2022/01/20 04:31:13;;;;;;;16.80;3.08;;;3.40;99.90;;;;;;5077003;28;20111;-74
2022/01/20 04:33:39;;;;;;;32.03;4.35;;;3.30;99.90;;;;;;5082734;28;20059;-73
2022/01/20 04:36:06;;;;;;;30.30;3.92;;;3.30;99.90;;;;;;5075712;28;20021;-74
2022/01/20 04:38:32;;;;;;;29.20;4.00;;;3.30;99.90;;;;;;5074545;28;20104;-74
2022/01/20 04:40:58;;;;;;;29.63;4.78;;;3.30;99.90;;;;;;5074530;28;20017;-73
2022/01/20 04:43:25;;;;;;;23.40;3.85;;;3.30;99.90;;;;;;5063817;28;20109;-73
2022/01/20 04:46:03;;;;;;;28.20;3.95;;;3.40;99.90;;;;;;5086380;28;20055;-73
2022/01/20 04:59:18;;;;;;;29.00;4.50;;;3.20;99.90;;;;;;5073470;28;20035;-73
2022/01/20 05:01:46;;;;;;;19.75;3.22;;;3.20;99.90;;;;;;5073330;28;20377;-74
2022/01/20 05:04:11;;;;;;;10.30;2.17;;;3.20;99.90;;;;;;5055167;28;20032;-74
2022/01/20 05:06:40;;;;;;;13.52;2.33;;;3.20;99.90;;;;;;5073118;28;20020;-74
2022/01/20 05:09:05;;;;;;;17.42;2.78;;;3.20;99.90;;;;;;5073315;28;20032;-74
2022/01/20 05:11:33;;;;;;;14.90;2.70;;;3.20;99.90;;;;;;5073617;28;20466;-74
2022/01/20 05:13:59;;;;;;;15.52;3.15;;;3.20;99.90;;;;;;5073664;28;20077;-74
2022/01/20 05:16:24;;;;;;;17.08;2.97;;;3.20;99.90;;;;;;5073357;28;20029;-74
2022/01/20 05:18:50;;;;;;;14.55;2.72;;;3.20;99.90;;;;;;5073400;28;20024;-74
2022/01/20 05:21:16;;;;;;;19.63;3.83;;;3.10;99.90;;;;;;5073270;28;20362;-74
2022/01/20 05:26:07;;;;;;;24.77;3.38;;;3.20;99.90;;;;;;5099783;22;20049;-69
2022/01/20 05:28:32;;;;;;;12.18;2.72;;;3.10;99.90;;;;;;5073002;28;20020;-69
2022/01/20 05:30:59;;;;;;;12.75;2.55;;;3.10;99.90;;;;;;5073094;28;20327;-69
2022/01/20 05:33:25;;;;;;;15.82;2.22;;;3.00;99.90;;;;;;5073186;28;20027;-69
2022/01/20 05:35:51;;;;;;;12.93;1.85;;;3.00;99.90;;;;;;5072874;28;20021;-69
2022/01/20 05:38:16;;;;;;;14.27;2.67;;;3.00;99.90;;;;;;5073171;28;20080;-69
2022/01/20 05:40:42;;;;;;;16.00;3.83;;;3.00;99.90;;;;;;5073281;28;20028;-69
2022/01/20 05:43:14;;;;;;;18.60;3.22;;;3.00;99.90;;;;;;5073911;28;20104;-68
2022/01/20 05:45:42;;;;;;;17.42;3.38;;;3.00;99.90;;;;;;5073064;28;20020;-69
2022/01/20 05:48:14;;;;;;;14.57;2.92;;;2.90;99.90;;;;;;5072756;28;20025;-69
2022/01/20 05:50:45;;;;;;;18.38;2.67;;;2.90;99.90;;;;;;5072940;28;20077;-69
2022/01/20 05:53:18;;;;;;;22.73;3.40;;;2.80;99.90;;;;;;5072658;28;20036;-69
2022/01/20 05:55:47;;;;;;;16.98;2.63;;;2.80;99.90;;;;;;5072532;28;20044;-71
2022/01/20 05:58:16;;;;;;;15.70;2.50;;;2.80;99.90;;;;;;5072586;28;20027;-68
2022/01/20 06:00:53;;;;;;;19.23;3.08;;;2.80;99.90;;;;;;5073126;28;20381;-68
2022/01/20 06:03:37;;;;;;;20.50;3.40;;;2.80;99.90;;;;;;5072486;28;20025;-69
2022/01/20 06:06:05;;;;;;;25.15;3.53;;;2.70;99.90;;;;;;5071972;28;20513;-70
2022/01/20 06:08:31;;;;;;;15.70;3.97;;;2.60;99.90;;;;;;5074370;28;20020;-71
2022/01/20 06:10:57;;;;;;;17.33;4.10;;;2.60;99.90;;;;;;5077306;28;20469;-70
2022/01/20 06:13:22;;;;;;;21.33;4.93;;;2.60;99.90;;;;;;5076096;28;20134;-70
2022/01/20 06:15:48;;;;;;;18.63;3.35;;;2.60;99.90;;;;;;5076387;28;20357;-70
2022/01/20 06:18:14;;;;;;;27.15;4.30;;;2.50;99.90;;;;;;5076685;28;20021;-71
2022/01/20 06:20:40;;;;;;;23.85;3.72;;;2.50;99.90;;;;;;5076333;28;20020;-71
2022/01/20 06:23:09;;;;;;;18.90;3.28;;;2.50;99.90;;;;;;5076370;28;20497;-71
2022/01/20 06:25:35;;;;;;;31.50;3.35;;;2.40;99.90;;;;;;5075941;28;20044;-71
2022/01/20 06:28:01;;;;;;;20.77;2.70;;;2.50;99.90;;;;;;5076339;28;20078;-70
2022/01/20 06:30:28;;;;;;;24.38;3.28;;;2.40;99.90;;;;;;5076418;28;20033;-70
2022/01/20 06:32:54;;;;;;;25.73;3.83;;;2.50;99.90;;;;;;5078885;28;20059;-71
2022/01/20 06:35:20;;;;;;;23.55;4.15;;;2.50;99.90;;;;;;5076050;28;20053;-70
2022/01/20 06:37:45;;;;;;;20.83;2.90;;;2.40;99.90;;;;;;5076652;28;20366;-69
2022/01/20 06:40:11;;;;;;;19.50;3.13;;;2.40;99.90;;;;;;5076191;28;20033;-69
2022/01/20 06:42:37;;;;;;;23.05;3.58;;;2.40;99.90;;;;;;5076016;28;20029;-68
2022/01/20 06:45:05;;;;;;;18.77;2.75;;;2.40;99.90;;;;;;5075702;28;20028;-69
2022/01/20 06:47:31;;;;;;;16.73;2.90;;;2.40;99.90;;;;;;5075732;28;20024;-69
2022/01/20 06:49:56;;;;;;;19.08;3.13;;;2.40;99.90;;;;;;5075572;28;20021;-69
2022/01/20 06:52:22;;;;;;;20.52;2.22;;;2.30;99.90;;;;;;5074484;28;20079;-69
2022/01/20 06:54:48;;;;;;;16.10;2.45;;;2.30;99.90;;;;;;5075816;28;20080;-69
2022/01/20 06:57:14;;;;;;;18.10;2.85;;;2.30;99.90;;;;;;5074406;28;20474;-69
2022/01/20 06:59:39;;;;;;;17.35;2.10;;;2.30;99.90;;;;;;5075935;28;20052;-68
2022/01/20 07:02:05;;;;;;;18.83;3.10;;;2.30;99.90;;;;;;5075727;28;20024;-68
2022/01/20 07:04:32;;;;;;;15.18;2.83;;;2.30;99.90;;;;;;5075639;28;20025;-69
2022/01/20 07:06:58;;;;;;;14.27;2.40;;;2.30;99.90;;;;;;5075719;28;20403;-68
2022/01/20 07:09:24;;;;;;;15.52;3.70;;;2.30;99.90;;;;;;5076272;28;20032;-68
2022/01/20 07:11:49;;;;;;;20.52;3.47;;;2.30;99.90;;;;;;5074376;28;20488;-69
2022/01/20 07:14:15;;;;;;;11.82;2.15;;;2.30;99.90;;;;;;5066683;28;20040;-69
2022/01/20 07:16:40;;;;;;;17.10;2.63;;;2.30;99.90;;;;;;5071318;28;20077;-69
2022/01/20 07:19:06;;;;;;;15.80;2.38;;;2.30;99.90;;;;;;5064511;28;20040;-69
2022/01/20 07:21:32;;;;;;;15.80;2.50;;;2.40;99.90;;;;;;5064978;28;20051;-69
2022/01/20 07:23:58;;;;;;;11.07;2.15;;;2.40;99.90;;;;;;5067576;28;20131;-70
2022/01/20 07:26:23;;;;;;;11.95;2.70;;;2.50;99.90;;;;;;5064457;28;20028;-70
2022/01/20 07:28:49;;;;;;;16.23;2.58;;;2.40;99.90;;;;;;5047918;28;20016;-70
2022/01/20 07:31:16;;;;;;;19.15;2.30;;;2.50;99.90;;;;;;5045017;28;20040;-70
2022/01/20 07:33:42;;;;;;;14.23;2.35;;;2.40;99.90;;;;;;5065207;28;20025;-70
2022/01/20 07:36:08;;;;;;;13.82;2.72;;;2.50;99.90;;;;;;5069395;28;20036;-71
2022/01/20 07:38:33;;;;;;;13.95;2.80;;;2.50;99.90;;;;;;5074973;28;20017;-71
2022/01/20 07:40:59;;;;;;;12.90;2.17;;;2.50;99.90;;;;;;5057174;28;20104;-71
2022/01/20 07:43:24;;;;;;;8.82;2.45;;;2.50;99.90;;;;;;5074886;28;20311;-71
2022/01/20 07:45:50;;;;;;;25.52;3.33;;;2.50;99.90;;;;;;5074907;28;20021;-71
2022/01/20 07:48:16;;;;;;;11.75;2.42;;;2.50;99.90;;;;;;5074963;28;20025;-71
2022/01/20 07:50:41;;;;;;;13.75;2.03;;;2.50;99.90;;;;;;5075464;28;20047;-71
2022/01/20 07:53:07;;;;;;;14.52;2.67;;;2.50;99.90;;;;;;5078466;28;20111;-71
2022/01/20 07:55:33;;;;;;;24.20;2.80;;;2.50;99.90;;;;;;5077539;28;20103;-72
2022/01/20 07:57:59;;;;;;;9.23;2.20;;;2.50;99.90;;;;;;5081035;28;20029;-70
2022/01/20 08:00:24;;;;;;;19.50;3.58;;;2.60;99.90;;;;;;5076120;28;20529;-71
2022/01/20 08:02:50;;;;;;;15.27;2.47;;;2.60;99.90;;;;;;5080972;28;20102;-70
2022/01/20 08:05:15;;;;;;;22.77;4.35;;;2.50;99.90;;;;;;5076358;28;20020;-70
2022/01/20 08:07:41;;;;;;;23.02;3.22;;;2.40;99.90;;;;;;5077326;28;20411;-71
2022/01/20 08:10:08;;;;;;;24.30;3.90;;;2.40;99.90;;;;;;5081206;28;20037;-68
2022/01/20 08:12:35;;;;;;;18.85;2.83;;;2.30;99.90;;;;;;5077324;28;20028;-71
2022/01/20 08:15:01;;;;;;;20.45;3.20;;;2.30;99.90;;;;;;5075562;28;20024;-71
2022/01/20 08:17:26;;;;;;;24.25;3.42;;;2.30;99.90;;;;;;5079771;28;20012;-71
2022/01/20 08:19:53;;;;;;;20.80;4.15;;;2.40;99.90;;;;;;5079734;28;20065;-72
2022/01/20 08:22:18;;;;;;;20.92;3.65;;;2.30;99.90;;;;;;5057499;28;20067;-72
2022/01/20 08:24:49;;;;;;;20.52;2.65;;;2.40;99.90;;;;;;5075318;28;20436;-71
2022/01/20 08:27:16;;;;;;;21.27;3.45;;;2.40;99.90;;;;;;5079803;28;20084;-71
2022/01/20 08:29:42;;;;;;;20.27;3.22;;;2.30;99.90;;;;;;5075729;28;20397;-71
2022/01/20 08:32:07;;;;;;;21.65;3.28;;;2.30;99.90;;;;;;5073793;28;20020;-71
2022/01/20 08:34:33;;;;;;;16.33;2.50;;;2.30;99.90;;;;;;5073788;28;20555;-71
2022/01/20 08:36:59;;;;;;;14.25;2.83;;;2.30;99.90;;;;;;5073847;28;20020;-71
2022/01/20 08:42:01;;;;;;;17.50;3.17;;;2.50;99.90;;;;;;5074190;28;20017;-71
2022/01/20 08:44:27;;;;;;;17.25;3.58;;;2.60;99.90;;;;;;5073796;28;20024;-70
2022/01/20 08:46:53;;;;;;;17.27;3.00;;;2.70;99.90;;;;;;5073892;28;20062;-71
2022/01/20 08:49:20;;;;;;;20.05;3.30;;;2.80;99.90;;;;;;5073869;28;20100;-70
2022/01/20 08:51:46;;;;;;;12.02;3.42;;;2.80;99.90;;;;;;5073638;28;20141;-71
2022/01/20 08:54:13;;;;;;;18.00;3.45;;;2.80;99.90;;;;;;5073420;28;20037;-71
2022/01/20 08:56:39;;;;;;;14.50;3.17;;;2.80;99.90;;;;;;5073751;28;20017;-70
2022/01/20 08:59:06;;;;;;;17.63;3.78;;;2.70;99.90;;;;;;5055472;28;20025;-71
2022/01/20 09:01:33;;;;;;;16.25;4.22;;;2.70;99.90;;;;;;5073716;28;20048;-71
2022/01/20 09:03:59;;;;;;;22.58;4.38;;;2.60;99.90;;;;;;5073232;28;20032;-73
2022/01/20 09:06:25;;;;;;;24.20;4.60;;;2.60;99.90;;;;;;5073496;28;20469;-71
2022/01/20 09:08:51;;;;;;;22.27;5.45;;;2.60;99.90;;;;;;5055366;28;20043;-71
2022/01/20 09:11:22;;;;;;;18.52;5.07;;;2.50;99.90;;;;;;5055638;28;20095;-71
2022/01/20 09:16:34;;;;;;;25.98;4.97;;;2.50;99.90;;;;;;5078035;28;20369;-70
2022/01/20 09:18:59;;;;;;;29.25;4.82;;;2.50;99.90;;;;;;5057484;28;20024;-71
2022/01/20 09:21:26;;;;;;;28.17;5.00;;;2.50;99.90;;;;;;5073237;28;20036;-71
2022/01/20 09:23:51;;;;;;;19.08;3.95;;;2.50;99.90;;;;;;5073695;28;20150;-70
2022/01/20 09:26:17;;;;;;;31.45;4.82;;;2.60;99.90;;;;;;5055216;28;20032;-70
2022/01/20 09:28:43;;;;;;;25.77;3.88;;;2.70;99.90;;;;;;5055239;28;20028;-71
2022/01/20 09:31:09;;;;;;;24.05;3.42;;;2.90;99.90;;;;;;5073463;28;20060;-71
2022/01/20 09:33:35;;;;;;;14.45;3.90;;;3.00;99.90;;;;;;5073076;28;20029;-71
2022/01/20 09:36:07;;;;;;;16.80;3.38;;;3.10;99.90;;;;;;5073138;28;20107;-71
2022/01/20 09:38:33;;;;;;;20.40;3.45;;;2.90;99.90;;;;;;5073621;28;20020;-68
2022/01/20 09:40:59;;;;;;;16.08;3.05;;;2.80;99.90;;;;;;5073442;28;20116;-68
2022/01/20 09:43:25;;;;;;;11.20;2.83;;;2.60;99.90;;;;;;5072196;28;20027;-68
2022/01/20 09:45:54;;;;;;;12.00;2.67;;;2.40;99.90;;;;;;5072918;28;20509;-68
2022/01/20 09:48:24;;;;;;;12.65;1.95;;;2.10;99.90;;;;;;5073828;28;20500;-68
2022/01/20 09:50:51;;;;;;;18.60;3.90;;;2.00;99.90;;;;;;5056657;28;20035;-67
2022/01/20 09:53:16;;;;;;;28.70;4.22;;;2.00;99.90;;;;;;5055807;28;20074;-67
2022/01/20 09:55:43;;;;;;;15.85;4.65;;;2.00;99.90;;;;;;5073130;28;20028;-67
2022/01/20 09:58:09;;;;;;;25.48;4.15;;;2.00;99.90;;;;;;5073187;28;20440;-67
2022/01/20 10:00:37;;;;;;;18.58;2.83;;;2.00;99.90;;;;;;5055182;28;20389;-67
2022/01/20 10:03:08;;;;;;;18.15;2.85;;;2.00;99.90;;;;;;5072628;28;20107;-68
2022/01/20 10:05:38;;;;;;;17.25;2.72;;;1.70;99.90;;;;;;5073220;28;20020;-68
2022/01/20 10:08:25;;;;;;;17.35;2.70;;;1.60;99.90;;;;;;5073681;28;20119;-68
2022/01/20 10:11:00;;;;;;;22.10;2.80;;;1.50;99.90;;;;;;5072895;28;20054;-68
2022/01/20 10:13:31;;;;;;;13.27;2.47;;;1.50;99.90;;;;;;5072695;28;20032;-68
2022/01/20 10:15:59;;;;;;;14.75;2.17;;;1.40;99.90;;;;;;5072664;28;20390;-68
2022/01/20 10:18:25;;;;;;;14.55;2.42;;;1.50;99.90;;;;;;5073105;28;20036;-68
2022/01/20 10:21:05;;;;;;;13.20;2.38;;;1.50;99.90;;;;;;5072960;28;20069;-68
2022/01/20 10:23:38;;;;;;;14.52;2.72;;;1.60;99.90;;;;;;5073029;28;20425;-68
2022/01/20 10:26:04;;;;;;;15.18;3.13;;;1.70;99.90;;;;;;5073621;28;20119;-68
2022/01/20 10:28:29;;;;;;;16.33;2.75;;;1.80;99.90;;;;;;5055342;28;20411;-68
2022/01/20 10:30:56;;;;;;;23.10;4.47;;;1.90;99.90;;;;;;5055348;28;20079;-67
2022/01/20 10:33:22;;;;;;;20.02;3.75;;;1.90;99.90;;;;;;5073082;28;20466;-68
2022/01/20 10:35:48;;;;;;;19.98;3.72;;;2.10;99.90;;;;;;5072705;28;20020;-68
2022/01/20 10:38:15;;;;;;;22.17;6.07;;;2.10;99.90;;;;;;5072861;28;20021;-68
2022/01/20 10:40:54;;;;;;;30.77;5.63;;;2.30;99.90;;;;;;5072992;28;20070;-69
2022/01/20 10:43:25;;;;;;;26.02;6.43;;;2.40;99.90;;;;;;5072734;28;20020;-68
2022/01/20 10:46:05;;;;;;;16.52;3.72;;;2.60;99.90;;;;;;5072790;28;20020;-67
2022/01/20 10:48:30;;;;;;;24.83;3.60;;;2.70;99.90;;;;;;5054720;28;20025;-68
2022/01/20 10:50:56;;;;;;;23.15;4.07;;;2.80;99.90;;;;;;5072641;28;20579;-68
2022/01/20 10:53:23;;;;;;;28.58;5.18;;;2.90;99.90;;;;;;5072964;28;20032;-68
2022/01/20 10:55:49;;;;;;;17.52;4.30;;;3.00;99.90;;;;;;5076297;28;20036;-68
2022/01/20 10:58:22;;;;;;;38.28;6.88;;;3.10;99.90;;;;;;5075973;28;20030;-68
2022/01/20 11:00:55;;;;;;;23.58;5.45;;;3.20;99.90;;;;;;5075130;28;20020;-69
2022/01/20 11:03:23;;;;;;;21.23;4.35;;;3.40;99.90;;;;;;5076154;28;20358;-68
2022/01/20 11:05:51;;;;;;;14.88;2.88;;;3.60;99.90;;;;;;5075300;28;20040;-69
2022/01/20 11:08:17;;;;;;;15.43;2.42;;;3.80;99.90;;;;;;5074643;28;20557;-68
2022/01/20 11:10:44;;;;;;;18.48;3.40;;;3.80;99.90;;;;;;5076018;28;20355;-67
2022/01/20 11:13:11;;;;;;;10.13;3.15;;;3.60;99.90;;;;;;5076358;28;20393;-68
2022/01/20 11:15:37;;;;;;;12.15;2.05;;;3.40;99.90;;;;;;5057813;28;20021;-69
2022/01/20 11:18:03;;;;;;;10.73;1.95;;;3.30;99.90;;;;;;5075521;28;20480;-68
2022/01/20 11:20:32;;;;;;;10.38;3.65;;;3.20;99.90;;;;;;5075461;28;20031;-68
2022/01/20 11:23:04;;;;;;;10.43;2.17;;;3.30;99.90;;;;;;5075190;28;20103;-70
2022/01/20 11:25:35;;;;;;;13.05;2.20;;;3.30;99.90;;;;;;5075250;28;20401;-68
2022/01/20 11:28:07;;;;;;;15.88;2.90;;;3.30;99.90;;;;;;5075579;28;20308;-68
2022/01/20 11:30:35;;;;;;;10.98;1.83;;;3.30;99.90;;;;;;5074590;28;20025;-69
2022/01/20 11:33:07;;;;;;;17.30;3.30;;;3.30;99.90;;;;;;5074849;28;20024;-68
2022/01/20 11:35:39;;;;;;;9.07;2.03;;;3.40;99.90;;;;;;5074974;28;20028;-68
2022/01/20 11:38:06;;;;;;;13.88;2.20;;;3.60;99.90;;;;;;5075404;28;20100;-68
2022/01/20 11:40:32;;;;;;;15.88;2.40;;;3.80;99.90;;;;;;5074992;28;20094;-68
2022/01/20 11:43:09;;;;;;;20.52;2.83;;;3.90;99.90;;;;;;5075006;28;20029;-68
2022/01/20 11:45:50;;;;;;;12.80;2.88;;;4.00;99.90;;;;;;5074688;28;20488;-68
2022/01/20 11:48:21;;;;;;;14.48;2.35;;;4.00;99.90;;;;;;5074768;28;20031;-68
2022/01/20 11:50:48;;;;;;;;;;;4.00;99.90;;;;;;5075069;28;20116;-68
2022/01/20 11:53:20;;;;;;;20.10;2.80;;;4.00;99.90;;;;;;5074614;28;19939;-68
2022/01/20 11:55:51;;;;;;;18.25;2.85;;;4.10;99.90;;;;;;5074725;28;20068;-67
2022/01/20 11:58:20;;;;;;;31.58;4.18;;;4.20;99.90;;;;;;5056612;28;20021;-67
2022/01/20 12:01:04;;;;;;;9.52;2.35;;;4.30;99.90;;;;;;5075176;28;20020;-67
2022/01/20 12:03:30;;;;;;;15.25;2.85;;;4.40;99.90;;;;;;5056365;28;20115;-67
2022/01/20 12:06:04;;;;;;;13.52;3.53;;;4.50;99.90;;;;;;5073875;28;20017;-67
2022/01/20 12:08:30;;;;;;;20.15;3.05;;;4.50;99.90;;;;;;5074115;28;20016;-67
2022/01/20 12:11:12;;;;;;;14.13;2.17;;;4.60;99.90;;;;;;5074138;28;20169;-67
2022/01/20 12:13:50;;;;;;;15.82;2.65;;;4.60;99.90;;;;;;5074342;28;20110;-67
2022/01/20 12:16:22;;;;;;;11.20;1.98;;;4.70;99.90;;;;;;5074245;28;20162;-67
2022/01/20 12:18:50;;;;;;;;;;;4.80;99.90;;;;;;5074777;28;20524;-67
2022/01/20 12:21:17;;;;;;;16.35;2.78;;;4.90;99.90;;;;;;5056176;28;20407;-67
2022/01/20 12:23:44;;;;;;;11.10;2.33;;;5.20;99.90;;;;;;5074120;28;20028;-67
2022/01/20 12:26:10;;;;;;;12.43;2.75;;;5.20;99.90;;;;;;5073820;28;20032;-67
2022/01/20 12:28:36;;;;;;;15.02;2.97;;;5.10;99.90;;;;;;5056135;28;20331;-67
2022/01/20 12:31:03;;;;;;;17.63;2.50;;;5.10;99.90;;;;;;5074055;28;20052;-68
2022/01/20 12:33:32;;;;;;;22.40;2.83;;;4.90;99.90;;;;;;5074599;28;20036;-68
2022/01/20 12:36:03;;;;;;;11.98;2.70;;;4.90;99.90;;;;;;5074517;28;20032;-66
2022/01/20 12:38:39;;;;;;;13.05;2.97;;;4.90;99.90;;;;;;5074099;28;20020;-67
2022/01/20 12:41:11;;;;;;;11.88;2.22;;;4.90;99.90;;;;;;5073776;28;20035;-66
2022/01/20 12:43:45;;;;;;;16.02;2.58;;;5.00;99.90;;;;;;5073765;28;20039;-67
2022/01/20 12:46:16;;;;;;;14.85;3.00;;;4.90;99.90;;;;;;5074287;28;20027;-67
2022/01/20 12:48:53;;;;;;;13.30;2.00;;;4.80;99.90;;;;;;5074147;28;20051;-67
2022/01/20 12:51:28;;;;;;;12.55;2.70;;;4.60;99.90;;;;;;5073719;28;20048;-67
2022/01/20 12:53:57;;;;;;;15.90;2.10;;;4.30;99.90;;;;;;5073599;28;20100;-66
2022/01/20 12:56:31;;;;;;;14.68;2.78;;;3.90;99.90;;;;;;5074113;28;20017;-66
2022/01/20 12:58:57;;;;;;;19.05;3.53;;;3.50;99.90;;;;;;5073429;28;20059;-66
2022/01/20 13:01:23;;;;;;;11.85;3.22;;;3.20;99.90;;;;;;5073388;28;20024;-66
2022/01/20 13:03:49;;;;;;;19.45;3.97;;;3.10;99.90;;;;;;5073184;28;20017;-67
2022/01/20 13:06:24;;;;;;;29.10;6.10;;;3.20;99.90;;;;;;5073693;28;20020;-67
2022/01/20 13:08:59;;;;;;;18.05;3.65;;;3.30;99.90;;;;;;5073623;28;20021;-66
2022/01/20 13:11:36;;;;;;;15.38;3.90;;;3.20;99.90;;;;;;5073962;28;20469;-66
2022/01/20 13:14:01;;;;;;;6.60;1.67;;;2.90;99.90;;;;;;5073823;28;20025;-67
2022/01/20 13:16:27;;;;;;;9.75;3.35;;;2.50;99.90;;;;;;5073173;28;20024;-67
2022/01/20 13:18:55;;;;;;;7.95;2.80;;;2.30;99.90;;;;;;5072975;28;20433;-67
2022/01/20 13:21:31;;;;;;;11.18;2.58;;;2.10;99.90;;;;;;5073214;28;20515;-67
2022/01/20 13:23:57;;;;;;;13.73;2.53;;;2.00;99.90;;;;;;5073191;28;20103;-67
2022/01/20 13:26:25;;;;;;;17.65;2.17;;;2.10;99.90;;;;;;5073412;28;20604;-68
2022/01/20 13:29:05;;;;;;;12.48;2.33;;;2.20;99.90;;;;;;5073556;28;20025;-68
2022/01/20 13:31:31;;;;;;;10.13;2.90;;;2.30;99.90;;;;;;5073520;28;20028;-68
2022/01/20 13:34:14;;;;;;;10.75;2.30;;;2.40;99.90;;;;;;5073323;28;20481;-68
2022/01/20 13:36:47;;;;;;;9.60;2.33;;;2.60;99.90;;;;;;5073612;28;20025;-67
2022/01/20 13:39:14;;;;;;;17.77;2.30;;;2.60;99.90;;;;;;5073881;28;20128;-67
2022/01/20 13:41:42;;;;;;;7.80;1.95;;;2.70;99.90;;;;;;5073802;28;20025;-67
2022/01/20 13:47:09;;;;;;;16.00;2.90;;;2.80;99.90;;;;;;5073871;28;20032;-68
2022/01/20 13:49:46;;;;;;;13.77;3.47;;;3.00;99.90;;;;;;5074062;28;20108;-67
2022/01/20 13:52:14;;;;;;;23.73;3.67;;;3.00;99.90;;;;;;5074350;28;20025;-67
2022/01/20 13:54:43;;;;;;;31.77;4.18;;;3.10;99.90;;;;;;5074331;28;20055;-67
2022/01/20 13:57:08;;;;;;;18.35;4.13;;;3.10;99.90;;;;;;5062759;28;20108;-67
2022/01/20 13:59:34;;;;;;;20.17;3.28;;;3.20;99.90;;;;;;5064288;28;20057;-67
2022/01/20 14:01:59;;;;;;;14.98;2.92;;;3.20;99.90;;;;;;5066287;28;20371;-68
2022/01/20 14:04:25;;;;;;;22.05;4.45;;;3.20;99.90;;;;;;5057141;28;20029;-68